РПИ Бишкек

Руководство

Evgeny Vygornitsky*

Куратор
Инструкторы РПИ
Evgeny Vygornitsky (Supervisor)
Входит в состав
Центральная Азия

Диспетчеры РПИ

Диспетчер Рейтинг Допуски *

Аэропорты РПИ

ICAO Город Название Погода
UCFM Бишкек Манас UCFM 240900Z 26010MPS 9999 FEW066CB 26/16 Q1008 TEMPO 28010G15MPS
UCFL Иссык-Куль Иссык-Куль UCFL 240900Z 12002MPS 090V160 9999 SCT030CB 18/09 Q1014
UCFP Каракол Каракол